KNSE/NSE METAR and TAF weather

Enter ICAO airport designator
Station Type Date Time Source
KNSE METAR 2022/11/30 11:07 UTC NOAA

KNSE 301107Z AUTO 21011KT 10SM BKN010 OVC014 23/22 A2996 RMK AO2 CIG 007V012 T02330217 $


Station Type Date Time Source
KNSE Decoded METAR 2022/11/30 11:07 UTC NOAA

MILTON WHITING FIELD (NORTH), FL, United States (KNSE) 30-44N 87-01W 60M
Nov 30, 2022 - 06:07 AM EST / 2022.11.30 1107 UTC
Wind: from the SSW (210 degrees) at 13 MPH (11 KT):0
Visibility: 10 mile(s):0
Sky conditions: overcast
Temperature: 73.9 F (23.3 C)
Dew Point: 71.1 F (21.7 C)
Relative Humidity: 90%
Pressure (altimeter): 29.96 in. Hg (1014 hPa)
ob: KNSE 301107Z AUTO 21011KT 10SM BKN010 OVC014 23/22 A2996 RMK AO2 CIG 007V012 T02330217
cycle: 11

Station Type Date Time Source
KNSE TAF 2022/11/30 07:51 UTC NOAA

TAF KNSE 3007/0107 18015G23KT 8000 -SHRA BKN007CB OVC013 QNH2996INS
BECMG 3009/3011 22013G23KT 6000 -SHRA VCTS SCT007 BKN015CB OVC080 QNH2994INS
TEMPO 3011/3017 VRB15G30KT 3200 TSRA BKN007 OVC015CB
FM301700 35015G23KT 9999 SCT015 BKN050 BKN250 QNH3006INS
BECMG 3020/3022 01012G20KT 9999 FEW050 FEW250 QNH3010INS AUTOMATED SENSOR METWATCH 3007 TIL 3012 T24/3018Z T09/0107Z FN00247

Example: see airport list